sensor_id;sensor_type;location;lat;lon;timestamp;temperature;humidity
43673;DHT22;41723;49.326;8.430;2023-05-07T00:01:48;17.10;99.90
43673;DHT22;41723;49.326;8.430;2023-05-07T00:04:14;17.00;99.90
43673;DHT22;41723;49.326;8.430;2023-05-07T00:06:40;16.90;99.90
43673;DHT22;41723;49.326;8.430;2023-05-07T00:09:06;16.80;99.90
43673;DHT22;41723;49.326;8.430;2023-05-07T00:11:32;16.80;99.90
43673;DHT22;41723;49.326;8.430;2023-05-07T00:13:57;16.90;99.90
43673;DHT22;41723;49.326;8.430;2023-05-07T00:16:23;16.80;99.90
43673;DHT22;41723;49.326;8.430;2023-05-07T00:18:48;16.90;99.90
43673;DHT22;41723;49.326;8.430;2023-05-07T00:21:14;16.90;99.90
43673;DHT22;41723;49.326;8.430;2023-05-07T00:23:40;16.90;99.90
43673;DHT22;41723;49.326;8.430;2023-05-07T00:26:05;16.90;99.90
43673;DHT22;41723;49.326;8.430;2023-05-07T00:28:31;16.80;99.90
43673;DHT22;41723;49.326;8.430;2023-05-07T00:30:56;16.70;99.90
43673;DHT22;41723;49.326;8.430;2023-05-07T00:33:22;16.70;99.90
43673;DHT22;41723;49.326;8.430;2023-05-07T00:35:48;16.70;99.90
43673;DHT22;41723;49.326;8.430;2023-05-07T00:38:13;16.70;99.90
43673;DHT22;41723;49.326;8.430;2023-05-07T00:40:39;16.70;99.90
43673;DHT22;41723;49.326;8.430;2023-05-07T00:43:05;16.70;99.90
43673;DHT22;41723;49.326;8.430;2023-05-07T00:45:31;16.70;99.90
43673;DHT22;41723;49.326;8.430;2023-05-07T00:48:00;16.70;99.90
43673;DHT22;41723;49.326;8.430;2023-05-07T00:50:26;16.50;99.90
43673;DHT22;41723;49.326;8.430;2023-05-07T00:52:53;16.50;99.90
43673;DHT22;41723;49.326;8.430;2023-05-07T00:55:18;16.50;99.90
43673;DHT22;41723;49.326;8.430;2023-05-07T00:57:45;16.40;99.90
43673;DHT22;41723;49.326;8.430;2023-05-07T01:00:11;16.50;99.90
43673;DHT22;41723;49.326;8.430;2023-05-07T01:02:38;16.50;99.90
43673;DHT22;41723;49.326;8.430;2023-05-07T01:05:04;16.50;99.90
43673;DHT22;41723;49.326;8.430;2023-05-07T01:07:31;16.40;99.90
43673;DHT22;41723;49.326;8.430;2023-05-07T01:09:57;16.30;99.90
43673;DHT22;41723;49.326;8.430;2023-05-07T01:12:23;16.20;99.90
43673;DHT22;41723;49.326;8.430;2023-05-07T01:14:50;16.20;99.90
43673;DHT22;41723;49.326;8.430;2023-05-07T01:17:16;16.20;99.90
43673;DHT22;41723;49.326;8.430;2023-05-07T01:19:41;16.20;99.90
43673;DHT22;41723;49.326;8.430;2023-05-07T01:22:08;16.10;99.90
43673;DHT22;41723;49.326;8.430;2023-05-07T01:24:43;16.30;99.90
43673;DHT22;41723;49.326;8.430;2023-05-07T01:27:08;16.20;99.90
43673;DHT22;41723;49.326;8.430;2023-05-07T01:29:35;16.40;99.90
43673;DHT22;41723;49.326;8.430;2023-05-07T01:32:01;16.50;99.90
43673;DHT22;41723;49.326;8.430;2023-05-07T01:34:28;16.50;99.90
43673;DHT22;41723;49.326;8.430;2023-05-07T01:36:55;16.40;99.90
43673;DHT22;41723;49.326;8.430;2023-05-07T01:39:24;16.30;99.90
43673;DHT22;41723;49.326;8.430;2023-05-07T01:41:50;16.20;99.90
43673;DHT22;41723;49.326;8.430;2023-05-07T01:44:16;16.10;99.90
43673;DHT22;41723;49.326;8.430;2023-05-07T01:46:42;16.30;99.90
43673;DHT22;41723;49.326;8.430;2023-05-07T01:49:08;16.30;99.90
43673;DHT22;41723;49.326;8.430;2023-05-07T01:51:33;16.20;99.90
43673;DHT22;41723;49.326;8.430;2023-05-07T01:53:59;16.30;99.90
43673;DHT22;41723;49.326;8.430;2023-05-07T01:56:26;16.10;99.90
43673;DHT22;41723;49.326;8.430;2023-05-07T01:58:51;16.10;99.90
43673;DHT22;41723;49.326;8.430;2023-05-07T02:01:17;16.00;99.90
43673;DHT22;41723;49.326;8.430;2023-05-07T02:03:43;15.90;99.90
43673;DHT22;41723;49.326;8.430;2023-05-07T02:06:17;15.90;99.90
43673;DHT22;41723;49.326;8.430;2023-05-07T02:08:43;15.90;99.90
43673;DHT22;41723;49.326;8.430;2023-05-07T02:11:10;15.90;99.90
43673;DHT22;41723;49.326;8.430;2023-05-07T02:13:35;16.00;99.90
43673;DHT22;41723;49.326;8.430;2023-05-07T02:16:01;16.10;99.90
43673;DHT22;41723;49.326;8.430;2023-05-07T02:18:27;16.00;99.90
43673;DHT22;41723;49.326;8.430;2023-05-07T02:20:53;15.90;99.90
43673;DHT22;41723;49.326;8.430;2023-05-07T02:23:19;15.80;99.90
43673;DHT22;41723;49.326;8.430;2023-05-07T02:25:44;15.70;99.90
43673;DHT22;41723;49.326;8.430;2023-05-07T02:28:11;15.70;99.90
43673;DHT22;41723;49.326;8.430;2023-05-07T02:30:43;15.80;99.90
43673;DHT22;41723;49.326;8.430;2023-05-07T02:33:09;15.80;99.90
43673;DHT22;41723;49.326;8.430;2023-05-07T02:35:38;15.80;99.90
43673;DHT22;41723;49.326;8.430;2023-05-07T02:38:04;15.60;99.90
43673;DHT22;41723;49.326;8.430;2023-05-07T02:40:30;15.60;99.90
43673;DHT22;41723;49.326;8.430;2023-05-07T02:42:59;15.70;99.90
43673;DHT22;41723;49.326;8.430;2023-05-07T02:45:24;15.90;99.90
43673;DHT22;41723;49.326;8.430;2023-05-07T02:47:52;15.90;99.90
43673;DHT22;41723;49.326;8.430;2023-05-07T02:50:18;15.80;99.90
43673;DHT22;41723;49.326;8.430;2023-05-07T02:52:43;15.90;99.90
43673;DHT22;41723;49.326;8.430;2023-05-07T02:55:09;16.00;99.90
43673;DHT22;41723;49.326;8.430;2023-05-07T02:57:35;16.00;99.90
43673;DHT22;41723;49.326;8.430;2023-05-07T03:00:09;16.00;99.90
43673;DHT22;41723;49.326;8.430;2023-05-07T03:02:35;15.90;99.90
43673;DHT22;41723;49.326;8.430;2023-05-07T03:05:01;16.10;99.90
43673;DHT22;41723;49.326;8.430;2023-05-07T03:07:27;15.90;99.90
43673;DHT22;41723;49.326;8.430;2023-05-07T03:09:52;15.80;99.90
43673;DHT22;41723;49.326;8.430;2023-05-07T03:12:19;15.70;99.90
43673;DHT22;41723;49.326;8.430;2023-05-07T03:14:44;15.90;99.90
43673;DHT22;41723;49.326;8.430;2023-05-07T03:17:10;15.90;99.90
43673;DHT22;41723;49.326;8.430;2023-05-07T03:19:36;15.80;99.90
43673;DHT22;41723;49.326;8.430;2023-05-07T03:22:02;15.80;99.90
43673;DHT22;41723;49.326;8.430;2023-05-07T03:24:27;15.80;99.90
43673;DHT22;41723;49.326;8.430;2023-05-07T03:26:53;15.80;99.90
43673;DHT22;41723;49.326;8.430;2023-05-07T03:29:19;15.80;99.90
43673;DHT22;41723;49.326;8.430;2023-05-07T03:31:45;15.80;99.90
43673;DHT22;41723;49.326;8.430;2023-05-07T03:34:10;15.70;99.90
43673;DHT22;41723;49.326;8.430;2023-05-07T03:36:36;15.50;99.90
43673;DHT22;41723;49.326;8.430;2023-05-07T03:39:04;15.40;99.90
43673;DHT22;41723;49.326;8.430;2023-05-07T03:41:37;15.30;99.90
43673;DHT22;41723;49.326;8.430;2023-05-07T03:44:02;15.20;99.90
43673;DHT22;41723;49.326;8.430;2023-05-07T03:46:28;15.20;99.90
43673;DHT22;41723;49.326;8.430;2023-05-07T03:48:54;15.20;99.90
43673;DHT22;41723;49.326;8.430;2023-05-07T03:51:20;15.20;99.90
43673;DHT22;41723;49.326;8.430;2023-05-07T03:53:45;15.20;99.90
43673;DHT22;41723;49.326;8.430;2023-05-07T03:56:11;15.20;99.90
43673;DHT22;41723;49.326;8.430;2023-05-07T03:58:39;15.20;99.90
43673;DHT22;41723;49.326;8.430;2023-05-07T04:01:08;15.10;99.90
43673;DHT22;41723;49.326;8.430;2023-05-07T04:03:34;15.20;99.90
43673;DHT22;41723;49.326;8.430;2023-05-07T04:05:59;15.20;99.90
43673;DHT22;41723;49.326;8.430;2023-05-07T04:08:25;15.20;99.90
43673;DHT22;41723;49.326;8.430;2023-05-07T04:10:57;15.10;99.90
43673;DHT22;41723;49.326;8.430;2023-05-07T04:13:24;15.10;99.90
43673;DHT22;41723;49.326;8.430;2023-05-07T04:15:51;15.00;99.90
43673;DHT22;41723;49.326;8.430;2023-05-07T04:18:18;15.00;99.90
43673;DHT22;41723;49.326;8.430;2023-05-07T04:20:45;14.90;99.90
43673;DHT22;41723;49.326;8.430;2023-05-07T04:23:13;15.00;99.90
43673;DHT22;41723;49.326;8.430;2023-05-07T04:25:40;15.00;99.90
43673;DHT22;41723;49.326;8.430;2023-05-07T04:28:16;15.00;99.90
43673;DHT22;41723;49.326;8.430;2023-05-07T04:30:42;15.00;99.90
43673;DHT22;41723;49.326;8.430;2023-05-07T04:33:09;15.00;99.90
43673;DHT22;41723;49.326;8.430;2023-05-07T04:35:37;15.00;99.90
43673;DHT22;41723;49.326;8.430;2023-05-07T04:38:04;15.10;99.90
43673;DHT22;41723;49.326;8.430;2023-05-07T04:40:30;15.00;99.90
43673;DHT22;41723;49.326;8.430;2023-05-07T04:42:56;15.10;99.90
43673;DHT22;41723;49.326;8.430;2023-05-07T04:45:22;15.30;99.90
43673;DHT22;41723;49.326;8.430;2023-05-07T04:47:47;15.50;99.90
43673;DHT22;41723;49.326;8.430;2023-05-07T04:50:13;15.60;99.90
43673;DHT22;41723;49.326;8.430;2023-05-07T04:52:40;15.70;99.90
43673;DHT22;41723;49.326;8.430;2023-05-07T04:55:06;15.80;99.90
43673;DHT22;41723;49.326;8.430;2023-05-07T04:57:36;15.60;99.90
43673;DHT22;41723;49.326;8.430;2023-05-07T05:00:03;15.50;99.90
43673;DHT22;41723;49.326;8.430;2023-05-07T05:02:31;15.40;99.90
43673;DHT22;41723;49.326;8.430;2023-05-07T05:04:56;15.40;99.90
43673;DHT22;41723;49.326;8.430;2023-05-07T05:07:22;15.40;99.90
43673;DHT22;41723;49.326;8.430;2023-05-07T05:09:48;15.30;99.90
43673;DHT22;41723;49.326;8.430;2023-05-07T05:12:13;15.40;99.90
43673;DHT22;41723;49.326;8.430;2023-05-07T05:14:39;15.30;99.90
43673;DHT22;41723;49.326;8.430;2023-05-07T05:17:06;15.30;99.90
43673;DHT22;41723;49.326;8.430;2023-05-07T05:19:32;15.40;99.90
43673;DHT22;41723;49.326;8.430;2023-05-07T05:21:58;15.40;99.90
43673;DHT22;41723;49.326;8.430;2023-05-07T05:24:27;15.30;99.90
43673;DHT22;41723;49.326;8.430;2023-05-07T05:26:53;15.40;99.90
43673;DHT22;41723;49.326;8.430;2023-05-07T05:29:18;15.50;99.90
43673;DHT22;41723;49.326;8.430;2023-05-07T05:31:44;15.60;99.90
43673;DHT22;41723;49.326;8.430;2023-05-07T05:34:10;15.50;99.90
43673;DHT22;41723;49.326;8.430;2023-05-07T05:36:36;15.50;99.90
43673;DHT22;41723;49.326;8.430;2023-05-07T05:39:02;15.50;99.90
43673;DHT22;41723;49.326;8.430;2023-05-07T05:41:28;15.50;99.90
43673;DHT22;41723;49.326;8.430;2023-05-07T05:43:54;15.60;99.90
43673;DHT22;41723;49.326;8.430;2023-05-07T05:46:20;15.60;99.90
43673;DHT22;41723;49.326;8.430;2023-05-07T05:48:46;15.70;99.90
43673;DHT22;41723;49.326;8.430;2023-05-07T05:51:12;15.80;99.90
43673;DHT22;41723;49.326;8.430;2023-05-07T05:53:38;15.80;99.90
43673;DHT22;41723;49.326;8.430;2023-05-07T05:56:05;15.70;99.90
43673;DHT22;41723;49.326;8.430;2023-05-07T05:58:32;15.80;99.90
43673;DHT22;41723;49.326;8.430;2023-05-07T06:01:10;15.80;99.90
43673;DHT22;41723;49.326;8.430;2023-05-07T06:03:38;15.90;99.90
43673;DHT22;41723;49.326;8.430;2023-05-07T06:06:10;16.00;99.90
43673;DHT22;41723;49.326;8.430;2023-05-07T06:08:36;16.10;99.90
43673;DHT22;41723;49.326;8.430;2023-05-07T06:11:03;16.10;99.90
43673;DHT22;41723;49.326;8.430;2023-05-07T06:13:31;16.20;99.90
43673;DHT22;41723;49.326;8.430;2023-05-07T06:15:56;16.20;99.90
43673;DHT22;41723;49.326;8.430;2023-05-07T06:18:22;16.20;99.90
43673;DHT22;41723;49.326;8.430;2023-05-07T06:20:47;16.30;99.90
43673;DHT22;41723;49.326;8.430;2023-05-07T06:23:22;16.30;99.90
43673;DHT22;41723;49.326;8.430;2023-05-07T06:25:48;16.30;99.90
43673;DHT22;41723;49.326;8.430;2023-05-07T06:28:14;16.20;99.90
43673;DHT22;41723;49.326;8.430;2023-05-07T06:30:41;16.20;99.90
43673;DHT22;41723;49.326;8.430;2023-05-07T06:33:07;16.10;99.90
43673;DHT22;41723;49.326;8.430;2023-05-07T06:35:32;16.20;99.90
43673;DHT22;41723;49.326;8.430;2023-05-07T06:37:59;16.20;99.90
43673;DHT22;41723;49.326;8.430;2023-05-07T06:40:27;16.20;99.90
43673;DHT22;41723;49.326;8.430;2023-05-07T06:42:52;16.40;99.90
43673;DHT22;41723;49.326;8.430;2023-05-07T06:45:26;16.40;99.90
43673;DHT22;41723;49.326;8.430;2023-05-07T06:47:54;16.60;99.90
43673;DHT22;41723;49.326;8.430;2023-05-07T06:50:20;16.70;99.90
43673;DHT22;41723;49.326;8.430;2023-05-07T06:52:46;16.90;99.90
43673;DHT22;41723;49.326;8.430;2023-05-07T06:55:11;17.00;99.90
43673;DHT22;41723;49.326;8.430;2023-05-07T06:57:37;17.00;99.90
43673;DHT22;41723;49.326;8.430;2023-05-07T07:00:03;16.80;99.90
43673;DHT22;41723;49.326;8.430;2023-05-07T07:02:36;16.80;99.90
43673;DHT22;41723;49.326;8.430;2023-05-07T07:05:02;16.80;99.90
43673;DHT22;41723;49.326;8.430;2023-05-07T07:07:27;16.90;99.90
43673;DHT22;41723;49.326;8.430;2023-05-07T07:09:53;17.10;99.90
43673;DHT22;41723;49.326;8.430;2023-05-07T07:12:19;17.30;99.90
43673;DHT22;41723;49.326;8.430;2023-05-07T07:14:44;17.40;99.90
43673;DHT22;41723;49.326;8.430;2023-05-07T07:17:11;17.40;99.90
43673;DHT22;41723;49.326;8.430;2023-05-07T07:19:37;17.60;99.90
43673;DHT22;41723;49.326;8.430;2023-05-07T07:22:04;17.60;99.90
43673;DHT22;41723;49.326;8.430;2023-05-07T07:24:30;17.70;99.90
43673;DHT22;41723;49.326;8.430;2023-05-07T07:26:59;17.60;99.90
43673;DHT22;41723;49.326;8.430;2023-05-07T07:29:26;17.50;99.90
43673;DHT22;41723;49.326;8.430;2023-05-07T07:31:52;17.70;99.90
43673;DHT22;41723;49.326;8.430;2023-05-07T07:34:19;17.70;99.90
43673;DHT22;41723;49.326;8.430;2023-05-07T07:36:45;17.80;99.90
43673;DHT22;41723;49.326;8.430;2023-05-07T07:39:10;18.00;99.90
43673;DHT22;41723;49.326;8.430;2023-05-07T07:41:36;18.00;99.90
43673;DHT22;41723;49.326;8.430;2023-05-07T07:44:03;18.10;99.90
43673;DHT22;41723;49.326;8.430;2023-05-07T07:46:29;18.20;99.90
43673;DHT22;41723;49.326;8.430;2023-05-07T07:48:55;18.10;99.90
43673;DHT22;41723;49.326;8.430;2023-05-07T07:51:21;18.10;99.90
43673;DHT22;41723;49.326;8.430;2023-05-07T07:53:46;18.20;99.90
43673;DHT22;41723;49.326;8.430;2023-05-07T07:56:12;18.30;99.90
43673;DHT22;41723;49.326;8.430;2023-05-07T07:58:38;18.40;99.90
43673;DHT22;41723;49.326;8.430;2023-05-07T08:01:04;18.30;99.90
43673;DHT22;41723;49.326;8.430;2023-05-07T08:03:30;18.20;99.90
43673;DHT22;41723;49.326;8.430;2023-05-07T08:05:58;18.20;99.90
43673;DHT22;41723;49.326;8.430;2023-05-07T08:08:24;18.30;99.90
43673;DHT22;41723;49.326;8.430;2023-05-07T08:10:51;18.30;99.90
43673;DHT22;41723;49.326;8.430;2023-05-07T08:13:26;18.40;99.90
43673;DHT22;41723;49.326;8.430;2023-05-07T08:15:52;18.40;99.90
43673;DHT22;41723;49.326;8.430;2023-05-07T08:18:18;18.50;99.90
43673;DHT22;41723;49.326;8.430;2023-05-07T08:20:45;18.70;99.90
43673;DHT22;41723;49.326;8.430;2023-05-07T08:23:14;18.80;99.90
43673;DHT22;41723;49.326;8.430;2023-05-07T08:25:41;19.00;99.90
43673;DHT22;41723;49.326;8.430;2023-05-07T08:28:08;19.30;99.90
43673;DHT22;41723;49.326;8.430;2023-05-07T08:30:34;19.40;99.90
43673;DHT22;41723;49.326;8.430;2023-05-07T08:33:00;19.50;99.90
43673;DHT22;41723;49.326;8.430;2023-05-07T08:35:26;19.60;99.90
43673;DHT22;41723;49.326;8.430;2023-05-07T08:37:54;19.90;99.90
43673;DHT22;41723;49.326;8.430;2023-05-07T08:40:21;20.00;99.90
43673;DHT22;41723;49.326;8.430;2023-05-07T08:42:49;20.00;99.20
43673;DHT22;41723;49.326;8.430;2023-05-07T08:45:17;19.70;98.80
43673;DHT22;41723;49.326;8.430;2023-05-07T08:47:44;19.60;99.40
43673;DHT22;41723;49.326;8.430;2023-05-07T08:50:11;19.50;99.00
43673;DHT22;41723;49.326;8.430;2023-05-07T08:52:38;19.60;99.30
43673;DHT22;41723;49.326;8.430;2023-05-07T08:55:04;19.70;99.20
43673;DHT22;41723;49.326;8.430;2023-05-07T08:57:31;19.90;98.70
43673;DHT22;41723;49.326;8.430;2023-05-07T08:59:56;20.00;99.50
43673;DHT22;41723;49.326;8.430;2023-05-07T09:02:22;20.10;99.30
43673;DHT22;41723;49.326;8.430;2023-05-07T09:04:48;20.10;99.20
43673;DHT22;41723;49.326;8.430;2023-05-07T09:07:14;20.30;99.10
43673;DHT22;41723;49.326;8.430;2023-05-07T09:09:43;20.30;98.60
43673;DHT22;41723;49.326;8.430;2023-05-07T09:12:09;20.30;99.00
43673;DHT22;41723;49.326;8.430;2023-05-07T09:14:36;20.40;98.90
43673;DHT22;41723;49.326;8.430;2023-05-07T09:17:03;20.10;98.60
43673;DHT22;41723;49.326;8.430;2023-05-07T09:19:28;20.10;99.20
43673;DHT22;41723;49.326;8.430;2023-05-07T09:21:58;20.10;98.90
43673;DHT22;41723;49.326;8.430;2023-05-07T09:24:25;20.00;98.70
43673;DHT22;41723;49.326;8.430;2023-05-07T09:26:51;20.00;98.80
43673;DHT22;41723;49.326;8.430;2023-05-07T09:29:16;20.20;98.50
43673;DHT22;41723;49.326;8.430;2023-05-07T09:31:43;20.20;98.30
43673;DHT22;41723;49.326;8.430;2023-05-07T09:34:15;20.00;98.70
43673;DHT22;41723;49.326;8.430;2023-05-07T09:36:43;20.20;99.10
43673;DHT22;41723;49.326;8.430;2023-05-07T09:39:09;20.30;98.60
43673;DHT22;41723;49.326;8.430;2023-05-07T09:41:42;20.50;98.70
43673;DHT22;41723;49.326;8.430;2023-05-07T09:44:13;20.50;98.20
43673;DHT22;41723;49.326;8.430;2023-05-07T09:46:43;20.50;97.90
43673;DHT22;41723;49.326;8.430;2023-05-07T09:49:21;20.70;98.60
43673;DHT22;41723;49.326;8.430;2023-05-07T09:51:49;20.90;98.40
43673;DHT22;41723;49.326;8.430;2023-05-07T09:54:16;21.00;98.40
43673;DHT22;41723;49.326;8.430;2023-05-07T09:56:45;21.10;97.90
43673;DHT22;41723;49.326;8.430;2023-05-07T09:59:15;21.20;98.10
43673;DHT22;41723;49.326;8.430;2023-05-07T10:01:42;21.20;98.10
43673;DHT22;41723;49.326;8.430;2023-05-07T10:04:09;21.10;97.20
43673;DHT22;41723;49.326;8.430;2023-05-07T10:06:36;21.10;97.50
43673;DHT22;41723;49.326;8.430;2023-05-07T10:09:04;21.20;97.10
43673;DHT22;41723;49.326;8.430;2023-05-07T10:11:34;21.20;97.70
43673;DHT22;41723;49.326;8.430;2023-05-07T10:14:02;21.40;97.40
43673;DHT22;41723;49.326;8.430;2023-05-07T10:16:33;21.60;97.90
43673;DHT22;41723;49.326;8.430;2023-05-07T10:19:05;21.80;97.00
43673;DHT22;41723;49.326;8.430;2023-05-07T10:21:34;21.80;97.30
43673;DHT22;41723;49.326;8.430;2023-05-07T10:24:05;22.00;97.00
43673;DHT22;41723;49.326;8.430;2023-05-07T10:26:32;22.10;96.90
43673;DHT22;41723;49.326;8.430;2023-05-07T10:29:02;22.10;96.40
43673;DHT22;41723;49.326;8.430;2023-05-07T10:34:11;22.00;96.30
43673;DHT22;41723;49.326;8.430;2023-05-07T10:36:38;22.20;96.50
43673;DHT22;41723;49.326;8.430;2023-05-07T10:39:05;22.40;96.30
43673;DHT22;41723;49.326;8.430;2023-05-07T10:41:32;22.40;96.30
43673;DHT22;41723;49.326;8.430;2023-05-07T10:43:58;22.40;96.30
43673;DHT22;41723;49.326;8.430;2023-05-07T10:46:29;22.50;96.20
43673;DHT22;41723;49.326;8.430;2023-05-07T10:49:16;22.60;95.70
43673;DHT22;41723;49.326;8.430;2023-05-07T10:52:15;22.70;95.90
43673;DHT22;41723;49.326;8.430;2023-05-07T10:54:48;22.80;95.40
43673;DHT22;41723;49.326;8.430;2023-05-07T10:57:34;22.90;95.80
43673;DHT22;41723;49.326;8.430;2023-05-07T11:00:48;23.10;95.70
43673;DHT22;41723;49.326;8.430;2023-05-07T11:05:31;23.30;95.00
43673;DHT22;41723;49.326;8.430;2023-05-07T11:08:09;23.40;94.80
43673;DHT22;41723;49.326;8.430;2023-05-07T11:10:50;23.50;95.30
43673;DHT22;41723;49.326;8.430;2023-05-07T11:16:18;23.70;94.80
43673;DHT22;41723;49.326;8.430;2023-05-07T11:24:07;23.90;94.70
43673;DHT22;41723;49.326;8.430;2023-05-07T11:26:53;23.90;94.40
43673;DHT22;41723;49.326;8.430;2023-05-07T11:29:21;24.00;94.30
43673;DHT22;41723;49.326;8.430;2023-05-07T11:31:53;24.10;94.30
43673;DHT22;41723;49.326;8.430;2023-05-07T11:34:21;24.40;93.40
43673;DHT22;41723;49.326;8.430;2023-05-07T11:36:48;24.60;93.80
43673;DHT22;41723;49.326;8.430;2023-05-07T11:39:30;24.70;93.60
43673;DHT22;41723;49.326;8.430;2023-05-07T11:41:58;24.90;93.30
43673;DHT22;41723;49.326;8.430;2023-05-07T11:44:24;25.00;93.60
43673;DHT22;41723;49.326;8.430;2023-05-07T11:46:49;25.00;92.90
43673;DHT22;41723;49.326;8.430;2023-05-07T11:49:15;24.90;92.90
43673;DHT22;41723;49.326;8.430;2023-05-07T11:51:41;24.90;93.00
43673;DHT22;41723;49.326;8.430;2023-05-07T11:54:08;25.20;92.50
43673;DHT22;41723;49.326;8.430;2023-05-07T11:56:34;25.10;92.80
43673;DHT22;41723;49.326;8.430;2023-05-07T11:59:00;25.00;92.30
43673;DHT22;41723;49.326;8.430;2023-05-07T12:01:26;25.30;92.60
43673;DHT22;41723;49.326;8.430;2023-05-07T12:03:52;25.40;92.10
43673;DHT22;41723;49.326;8.430;2023-05-07T12:06:17;25.30;92.10
43673;DHT22;41723;49.326;8.430;2023-05-07T12:08:43;25.60;92.50
43673;DHT22;41723;49.326;8.430;2023-05-07T12:11:12;25.80;91.50
43673;DHT22;41723;49.326;8.430;2023-05-07T12:13:38;26.10;91.10
43673;DHT22;41723;49.326;8.430;2023-05-07T12:16:05;25.90;91.10
43673;DHT22;41723;49.326;8.430;2023-05-07T12:18:30;25.90;91.10
43673;DHT22;41723;49.326;8.430;2023-05-07T12:20:56;25.80;90.40
43673;DHT22;41723;49.326;8.430;2023-05-07T12:23:22;25.70;91.30
43673;DHT22;41723;49.326;8.430;2023-05-07T12:25:48;25.70;90.80
43673;DHT22;41723;49.326;8.430;2023-05-07T12:28:14;25.50;90.50
43673;DHT22;41723;49.326;8.430;2023-05-07T12:30:41;25.30;91.10
43673;DHT22;41723;49.326;8.430;2023-05-07T12:33:07;25.60;90.80
43673;DHT22;41723;49.326;8.430;2023-05-07T12:35:37;25.70;90.70
43673;DHT22;41723;49.326;8.430;2023-05-07T12:38:08;25.90;90.70
43673;DHT22;41723;49.326;8.430;2023-05-07T12:43:03;26.00;90.40
43673;DHT22;41723;49.326;8.430;2023-05-07T12:45:28;26.20;90.40
43673;DHT22;41723;49.326;8.430;2023-05-07T12:47:54;26.10;90.50
43673;DHT22;41723;49.326;8.430;2023-05-07T12:50:19;25.60;90.40
43673;DHT22;41723;49.326;8.430;2023-05-07T12:52:49;25.50;90.70
43673;DHT22;41723;49.326;8.430;2023-05-07T12:55:15;25.40;90.50
43673;DHT22;41723;49.326;8.430;2023-05-07T12:57:42;25.40;90.40
43673;DHT22;41723;49.326;8.430;2023-05-07T13:00:07;25.20;90.20
43673;DHT22;41723;49.326;8.430;2023-05-07T13:02:37;25.00;90.80
43673;DHT22;41723;49.326;8.430;2023-05-07T13:05:03;25.00;91.20
43673;DHT22;41723;49.326;8.430;2023-05-07T13:07:29;24.90;91.30
43673;DHT22;41723;49.326;8.430;2023-05-07T13:09:54;24.80;91.30
43673;DHT22;41723;49.326;8.430;2023-05-07T13:12:20;24.80;91.70
43673;DHT22;41723;49.326;8.430;2023-05-07T13:14:46;24.80;92.00
43673;DHT22;41723;49.326;8.430;2023-05-07T13:17:11;24.70;91.50
43673;DHT22;41723;49.326;8.430;2023-05-07T13:19:37;24.70;91.40
43673;DHT22;41723;49.326;8.430;2023-05-07T13:22:04;24.70;91.20
43673;DHT22;41723;49.326;8.430;2023-05-07T13:24:29;24.60;91.20
43673;DHT22;41723;49.326;8.430;2023-05-07T13:26:55;24.50;91.80
43673;DHT22;41723;49.326;8.430;2023-05-07T13:29:21;24.40;91.80
43673;DHT22;41723;49.326;8.430;2023-05-07T13:31:56;24.40;91.60
43673;DHT22;41723;49.326;8.430;2023-05-07T13:34:22;24.20;91.50
43673;DHT22;41723;49.326;8.430;2023-05-07T13:36:48;24.10;91.60
43673;DHT22;41723;49.326;8.430;2023-05-07T13:39:14;24.20;91.90
43673;DHT22;41723;49.326;8.430;2023-05-07T13:41:39;24.10;92.00
43673;DHT22;41723;49.326;8.430;2023-05-07T13:44:05;24.10;92.10
43673;DHT22;41723;49.326;8.430;2023-05-07T13:46:30;24.10;92.00
43673;DHT22;41723;49.326;8.430;2023-05-07T13:48:56;24.00;92.00
43673;DHT22;41723;49.326;8.430;2023-05-07T13:51:22;24.00;92.20
43673;DHT22;41723;49.326;8.430;2023-05-07T13:53:47;24.00;92.50
43673;DHT22;41723;49.326;8.430;2023-05-07T13:56:13;23.70;92.20
43673;DHT22;41723;49.326;8.430;2023-05-07T13:58:39;23.50;92.90
43673;DHT22;41723;49.326;8.430;2023-05-07T14:01:05;23.40;92.80
43673;DHT22;41723;49.326;8.430;2023-05-07T14:03:31;23.10;93.60
43673;DHT22;41723;49.326;8.430;2023-05-07T14:05:58;22.90;93.60
43673;DHT22;41723;49.326;8.430;2023-05-07T14:08:25;22.60;94.20
43673;DHT22;41723;49.326;8.430;2023-05-07T14:10:51;22.50;94.50
43673;DHT22;41723;49.326;8.430;2023-05-07T14:13:17;22.50;94.80
43673;DHT22;41723;49.326;8.430;2023-05-07T14:15:42;22.50;94.90
43673;DHT22;41723;49.326;8.430;2023-05-07T14:18:12;22.40;95.80
43673;DHT22;41723;49.326;8.430;2023-05-07T14:20:37;22.20;96.60
43673;DHT22;41723;49.326;8.430;2023-05-07T14:23:03;21.90;99.90
43673;DHT22;41723;49.326;8.430;2023-05-07T14:25:28;21.40;99.90
43673;DHT22;41723;49.326;8.430;2023-05-07T14:27:54;21.10;99.90
43673;DHT22;41723;49.326;8.430;2023-05-07T14:30:20;21.00;99.90
43673;DHT22;41723;49.326;8.430;2023-05-07T14:32:45;20.60;99.90
43673;DHT22;41723;49.326;8.430;2023-05-07T14:35:11;20.40;99.90
43673;DHT22;41723;49.326;8.430;2023-05-07T14:37:36;20.20;99.90
43673;DHT22;41723;49.326;8.430;2023-05-07T14:40:02;20.10;99.90
43673;DHT22;41723;49.326;8.430;2023-05-07T14:42:27;19.90;99.90
43673;DHT22;41723;49.326;8.430;2023-05-07T14:44:53;19.60;99.90
43673;DHT22;41723;49.326;8.430;2023-05-07T14:47:19;19.60;99.90
43673;DHT22;41723;49.326;8.430;2023-05-07T14:49:44;19.50;99.90
43673;DHT22;41723;49.326;8.430;2023-05-07T14:52:10;19.30;99.90
43673;DHT22;41723;49.326;8.430;2023-05-07T14:54:36;19.30;99.90
43673;DHT22;41723;49.326;8.430;2023-05-07T14:57:02;19.30;99.90
43673;DHT22;41723;49.326;8.430;2023-05-07T14:59:27;19.20;99.90
43673;DHT22;41723;49.326;8.430;2023-05-07T15:01:53;19.10;99.90
43673;DHT22;41723;49.326;8.430;2023-05-07T15:04:19;19.10;99.90
43673;DHT22;41723;49.326;8.430;2023-05-07T15:06:45;19.20;99.90
43673;DHT22;41723;49.326;8.430;2023-05-07T15:09:11;19.10;99.90
43673;DHT22;41723;49.326;8.430;2023-05-07T15:11:37;19.00;99.90
43673;DHT22;41723;49.326;8.430;2023-05-07T15:14:03;19.00;99.90
43673;DHT22;41723;49.326;8.430;2023-05-07T15:16:29;18.90;99.90
43673;DHT22;41723;49.326;8.430;2023-05-07T15:18:54;18.90;99.90
43673;DHT22;41723;49.326;8.430;2023-05-07T15:21:21;18.90;99.90
43673;DHT22;41723;49.326;8.430;2023-05-07T15:23:46;18.80;99.90
43673;DHT22;41723;49.326;8.430;2023-05-07T15:26:12;18.70;99.90
43673;DHT22;41723;49.326;8.430;2023-05-07T15:28:38;18.70;99.90
43673;DHT22;41723;49.326;8.430;2023-05-07T15:31:04;18.50;99.90
43673;DHT22;41723;49.326;8.430;2023-05-07T15:33:31;18.40;99.90
43673;DHT22;41723;49.326;8.430;2023-05-07T15:35:56;18.30;99.90
43673;DHT22;41723;49.326;8.430;2023-05-07T15:38:25;18.40;99.90
43673;DHT22;41723;49.326;8.430;2023-05-07T15:40:50;18.30;99.90
43673;DHT22;41723;49.326;8.430;2023-05-07T15:43:16;18.20;99.90
43673;DHT22;41723;49.326;8.430;2023-05-07T15:45:42;18.10;99.90